Time;durP1;ratioP1;P1;durP2;ratioP2;P2;SDS_P1;SDS_P2;PMS_P1;PMS_P2;Temp;Humidity;BMP_temperature;BMP_pressure;BME280_temperature;BME280_humidity;BME280_pressure;Samples;Min_cycle;Max_cycle;Signal;HPM_P1;HPM_P2
2023/07/08 00:00:47;;;;;;;7.78;3.20;;;20.50;97.70;;;;;;4953668;28;20046;-45
2023/07/08 00:03:14;;;;;;;6.63;3.50;;;20.40;97.80;;;;;;4953223;28;20515;-47
2023/07/08 00:05:40;;;;;;;7.30;3.67;;;20.30;97.80;;;;;;4952509;28;20043;-51
2023/07/08 00:08:19;;;;;;;7.43;3.30;;;20.30;97.90;;;;;;4951591;28;20066;-45
2023/07/08 00:10:46;;;;;;;6.95;3.75;;;20.30;97.90;;;;;;4953477;28;20579;-44
2023/07/08 00:13:11;;;;;;;5.20;3.30;;;20.20;97.90;;;;;;4953115;28;20066;-47
2023/07/08 00:15:38;;;;;;;6.97;3.67;;;20.20;98.40;;;;;;4953290;28;20047;-46
2023/07/08 00:18:16;;;;;;;7.20;3.28;;;20.10;98.10;;;;;;4952938;28;20039;-49
2023/07/08 00:20:47;;;;;;;9.30;3.58;;;20.10;98.30;;;;;;4953122;28;20035;-44
2023/07/08 00:23:13;;;;;;;7.05;3.67;;;20.10;98.20;;;;;;4953018;28;20090;-48
2023/07/08 00:25:39;;;;;;;4.97;3.33;;;20.10;98.30;;;;;;4953122;28;20035;-49
2023/07/08 00:28:17;;;;;;;8.07;4.07;;;20.00;98.30;;;;;;4952962;28;20039;-47
2023/07/08 00:30:43;;;;;;;5.82;3.70;;;20.00;98.40;;;;;;4949633;28;20039;-45
2023/07/08 00:33:09;;;;;;;7.07;3.83;;;19.90;98.50;;;;;;4952885;28;20039;-46
2023/07/08 00:35:37;;;;;;;6.80;3.40;;;19.90;98.50;;;;;;4953163;28;20407;-46
2023/07/08 00:38:20;;;;;;;5.57;3.53;;;19.80;98.60;;;;;;4935066;28;20086;-46
2023/07/08 00:40:52;;;;;;;6.80;3.55;;;19.80;98.60;;;;;;4934335;28;20056;-47
2023/07/08 00:43:23;;;;;;;7.75;3.67;;;19.80;98.70;;;;;;4952550;28;20471;-49
2023/07/08 00:46:00;;;;;;;6.97;3.88;;;19.70;98.80;;;;;;4952698;28;20039;-49
2023/07/08 00:48:31;;;;;;;6.32;3.50;;;19.70;99.10;;;;;;4952503;28;20095;-49
2023/07/08 00:50:57;;;;;;;7.20;3.97;;;19.70;98.90;;;;;;4930627;28;20066;-48
2023/07/08 00:53:26;;;;;;;6.60;3.92;;;19.60;99.00;;;;;;4954238;28;20047;-45
2023/07/08 00:56:03;;;;;;;8.35;3.58;;;19.60;99.00;;;;;;4956145;28;20081;-48
2023/07/08 00:58:34;;;;;;;7.20;3.63;;;19.50;99.10;;;;;;4955747;28;20098;-47
2023/07/08 01:01:04;;;;;;;6.03;3.47;;;19.60;99.30;;;;;;4937764;28;20043;-45
2023/07/08 01:03:31;;;;;;;9.40;4.35;;;19.50;99.30;;;;;;4955566;28;20118;-48
2023/07/08 01:05:59;;;;;;;7.30;3.88;;;19.50;99.30;;;;;;4956746;28;20045;-45
2023/07/08 01:08:28;;;;;;;8.65;3.75;;;19.50;99.40;;;;;;4975580;28;20039;-47
2023/07/08 01:11:00;;;;;;;6.55;3.45;;;19.40;99.40;;;;;;4975346;28;20055;-47
2023/07/08 01:13:26;;;;;;;6.50;3.83;;;19.40;99.50;;;;;;4960669;28;20495;-47
2023/07/08 01:15:52;;;;;;;6.97;4.00;;;19.40;99.60;;;;;;4956425;28;20039;-46
2023/07/08 01:18:21;;;;;;;9.63;4.25;;;19.40;99.60;;;;;;4956035;28;20103;-50
2023/07/08 01:20:47;;;;;;;7.30;3.78;;;19.40;99.60;;;;;;4956396;28;20082;-46
2023/07/08 01:23:13;;;;;;;7.00;3.88;;;19.40;99.70;;;;;;4956383;28;20030;-46
2023/07/08 01:25:42;;;;;;;5.63;3.65;;;19.30;99.70;;;;;;4954772;28;20036;-46
2023/07/08 01:28:08;;;;;;;7.57;4.13;;;19.30;99.70;;;;;;4956192;28;20295;-48
2023/07/08 01:30:35;;;;;;;8.90;3.97;;;19.20;99.70;;;;;;4938569;28;20398;-45
2023/07/08 01:33:05;;;;;;;8.20;4.10;;;19.20;99.90;;;;;;4956012;28;20039;-48
2023/07/08 01:35:31;;;;;;;7.18;3.42;;;19.20;99.90;;;;;;4956013;28;20039;-47
2023/07/08 01:37:59;;;;;;;7.68;3.92;;;19.10;99.90;;;;;;4938938;28;21046;-46
2023/07/08 01:40:31;;;;;;;9.60;4.03;;;19.10;99.90;;;;;;4954415;28;20439;-46
2023/07/08 01:42:58;;;;;;;8.95;4.10;;;19.10;99.90;;;;;;4938229;28;20099;-46
2023/07/08 01:45:26;;;;;;;6.60;3.88;;;19.10;99.90;;;;;;4955920;28;20035;-50
2023/07/08 01:48:00;;;;;;;6.53;4.10;;;19.00;99.90;;;;;;4955386;28;20078;-50
2023/07/08 01:50:27;;;;;;;;;;;19.00;99.90;;;;;;4956040;28;20083;-47
2023/07/08 01:52:56;;;;;;;8.23;3.95;;;18.90;99.90;;;;;;4955781;28;19926;-47
2023/07/08 01:55:28;;;;;;;9.15;4.25;;;18.80;99.90;;;;;;4955468;28;20043;-48
2023/07/08 01:57:54;;;;;;;6.90;4.10;;;18.80;99.90;;;;;;4955323;28;20043;-48
2023/07/08 02:00:21;;;;;;;7.32;4.47;;;18.80;99.90;;;;;;4937879;28;20035;-47
2023/07/08 02:02:47;;;;;;;7.28;4.10;;;18.80;99.90;;;;;;4955091;28;20424;-47
2023/07/08 02:05:13;;;;;;;7.55;4.30;;;18.70;99.90;;;;;;4954307;28;20047;-48
2023/07/08 02:07:38;;;;;;;7.60;4.22;;;18.70;99.90;;;;;;4953554;28;20394;-48
2023/07/08 02:10:05;;;;;;;6.60;4.28;;;18.70;99.90;;;;;;4954392;28;20142;-46
2023/07/08 02:12:30;;;;;;;9.32;5.53;;;18.70;99.90;;;;;;4954615;28;20055;-56
2023/07/08 02:14:56;;;;;;;6.47;4.07;;;18.60;99.90;;;;;;4954207;28;20125;-47
2023/07/08 02:17:22;;;;;;;7.97;4.40;;;18.60;99.90;;;;;;4955314;28;20131;-48
2023/07/08 02:19:47;;;;;;;10.38;4.47;;;18.60;99.90;;;;;;4954919;28;20039;-47
2023/07/08 02:22:13;;;;;;;7.65;4.32;;;18.60;99.90;;;;;;4954397;28;20043;-49
2023/07/08 02:24:39;;;;;;;9.02;4.30;;;18.50;99.90;;;;;;4953684;28;20124;-47
2023/07/08 02:27:04;;;;;;;9.25;4.40;;;18.50;99.90;;;;;;4953900;28;20491;-47
2023/07/08 02:29:31;;;;;;;7.18;4.60;;;18.50;99.90;;;;;;4954434;28;20043;-48
2023/07/08 02:31:57;;;;;;;7.30;4.30;;;18.40;99.90;;;;;;4954972;28;20046;-45
2023/07/08 02:34:23;;;;;;;7.22;4.40;;;18.40;99.90;;;;;;4953644;28;20039;-49
2023/07/08 02:36:49;;;;;;;6.47;4.40;;;18.30;99.90;;;;;;4937188;28;20035;-47
2023/07/08 02:39:14;;;;;;;7.53;4.53;;;18.30;99.90;;;;;;4954369;28;20039;-46
2023/07/08 02:41:40;;;;;;;9.57;4.70;;;18.30;99.90;;;;;;4954841;28;20138;-50
2023/07/08 02:44:06;;;;;;;6.93;4.47;;;18.30;99.90;;;;;;4954542;28;20042;-48
2023/07/08 02:46:31;;;;;;;10.75;5.28;;;18.20;99.90;;;;;;4953634;28;20050;-49
2023/07/08 02:48:57;;;;;;;7.10;4.95;;;18.20;99.90;;;;;;4954528;28;20043;-48
2023/07/08 02:51:22;;;;;;;9.13;4.53;;;18.20;99.90;;;;;;4954541;28;20031;-47
2023/07/08 02:53:49;;;;;;;8.68;4.47;;;18.10;99.90;;;;;;4954568;28;20035;-48
2023/07/08 02:56:15;;;;;;;8.57;4.68;;;18.10;99.90;;;;;;4954869;28;20046;-49
2023/07/08 02:58:41;;;;;;;7.68;4.40;;;18.10;99.90;;;;;;4954469;28;20491;-48
2023/07/08 03:01:08;;;;;;;11.98;4.78;;;18.00;99.90;;;;;;4954393;28;20537;-48
2023/07/08 03:03:35;;;;;;;8.73;4.88;;;17.90;99.90;;;;;;4954359;28;20043;-47
2023/07/08 03:06:07;;;;;;;8.82;4.70;;;17.90;99.90;;;;;;4937132;28;20065;-48
2023/07/08 03:08:33;;;;;;;8.13;4.43;;;17.80;99.90;;;;;;4953774;28;20126;-44
2023/07/08 03:11:02;;;;;;;7.38;4.72;;;17.90;99.90;;;;;;4954253;28;20129;-47
2023/07/08 03:13:28;;;;;;;7.25;4.70;;;17.80;99.90;;;;;;4954337;28;20053;-47
2023/07/08 03:15:54;;;;;;;8.27;4.57;;;17.80;99.90;;;;;;4953802;28;20126;-48
2023/07/08 03:18:23;;;;;;;8.93;4.60;;;17.80;99.90;;;;;;4953492;28;20479;-50
2023/07/08 03:20:49;;;;;;;6.90;4.55;;;17.80;99.90;;;;;;4954051;28;20058;-44
2023/07/08 03:23:15;;;;;;;10.63;4.90;;;17.70;99.90;;;;;;4954081;28;20123;-48
2023/07/08 03:25:42;;;;;;;7.72;4.90;;;17.70;99.90;;;;;;4953794;28;20519;-46
2023/07/08 03:28:14;;;;;;;9.77;4.95;;;17.70;99.90;;;;;;4953926;28;20047;-48
2023/07/08 03:30:43;;;;;;;7.10;4.50;;;17.70;99.90;;;;;;4953862;28;20051;-46
2023/07/08 03:33:10;;;;;;;8.88;5.25;;;17.60;99.90;;;;;;4953722;28;20083;-47
2023/07/08 03:35:35;;;;;;;10.45;5.20;;;17.60;99.90;;;;;;4953437;28;20055;-46
2023/07/08 03:38:02;;;;;;;6.75;4.55;;;17.60;99.90;;;;;;4953781;28;20099;-49
2023/07/08 03:40:28;;;;;;;8.32;4.68;;;17.60;99.90;;;;;;4953064;28;20082;-48
2023/07/08 03:42:54;;;;;;;8.18;4.70;;;17.60;99.90;;;;;;4953595;28;20067;-45
2023/07/08 03:45:19;;;;;;;8.02;5.03;;;17.60;99.90;;;;;;4953449;28;20035;-48
2023/07/08 03:47:45;;;;;;;6.55;4.57;;;17.50;99.90;;;;;;4953533;28;20494;-47
2023/07/08 03:50:24;;;;;;;8.05;4.82;;;17.50;99.90;;;;;;4953514;28;20102;-46
2023/07/08 03:52:52;;;;;;;6.88;4.93;;;17.50;99.90;;;;;;4953585;28;20475;-47
2023/07/08 03:55:18;;;;;;;9.75;4.97;;;17.40;99.90;;;;;;4953046;28;20129;-46
2023/07/08 03:57:44;;;;;;;8.05;4.60;;;17.40;99.90;;;;;;4952696;28;20074;-46
2023/07/08 04:00:12;;;;;;;8.98;5.10;;;17.40;99.90;;;;;;4953207;28;20443;-46
2023/07/08 04:02:39;;;;;;;8.50;4.63;;;17.40;99.90;;;;;;4953426;28;20491;-47
2023/07/08 04:05:05;;;;;;;9.23;4.40;;;17.40;99.90;;;;;;4953362;28;20039;-48
2023/07/08 04:07:31;;;;;;;8.50;5.25;;;17.40;99.90;;;;;;4953147;28;20529;-51
2023/07/08 04:09:57;;;;;;;8.48;5.28;;;17.30;99.90;;;;;;4952575;28;20134;-48
2023/07/08 04:12:23;;;;;;;8.07;5.10;;;17.40;99.90;;;;;;4935930;28;20130;-47
2023/07/08 04:14:48;;;;;;;10.23;5.57;;;17.40;99.90;;;;;;4953441;28;20398;-47
2023/07/08 04:17:15;;;;;;;6.95;5.05;;;17.40;99.90;;;;;;4952631;28;20031;-47
2023/07/08 04:19:43;;;;;;;7.63;5.10;;;17.30;99.90;;;;;;4953251;28;20127;-47
2023/07/08 04:22:10;;;;;;;9.57;5.32;;;17.40;99.90;;;;;;4952904;28;20043;-49
2023/07/08 04:24:36;;;;;;;9.25;4.95;;;17.30;99.90;;;;;;4953119;28;20550;-49
2023/07/08 04:27:02;;;;;;;7.07;5.00;;;17.40;99.90;;;;;;4919434;28;20043;-46
2023/07/08 04:29:28;;;;;;;6.82;5.30;;;17.40;99.90;;;;;;4952837;28;20110;-47
2023/07/08 04:31:53;;;;;;;8.32;5.15;;;17.40;99.90;;;;;;4953204;28;20376;-48
2023/07/08 04:34:20;;;;;;;7.88;5.22;;;17.40;99.90;;;;;;4934477;28;20050;-49
2023/07/08 04:36:46;;;;;;;7.55;5.15;;;17.40;99.90;;;;;;4952965;28;20074;-48
2023/07/08 04:39:13;;;;;;;7.50;4.85;;;17.50;99.90;;;;;;4952450;28;20035;-45
2023/07/08 04:41:40;;;;;;;9.38;5.07;;;17.50;99.90;;;;;;4952440;28;20126;-48
2023/07/08 04:44:10;;;;;;;8.13;4.82;;;17.50;99.90;;;;;;4935442;28;20039;-47
2023/07/08 04:46:50;;;;;;;8.10;4.80;;;17.60;99.90;;;;;;4953220;28;20039;-47
2023/07/08 04:49:17;;;;;;;8.68;5.43;;;17.60;99.90;;;;;;4952790;28;20115;-47
2023/07/08 04:51:43;;;;;;;8.52;4.53;;;17.60;99.90;;;;;;4952833;28;20474;-47
2023/07/08 04:54:09;;;;;;;8.75;5.22;;;17.60;99.90;;;;;;4962206;28;20039;-46
2023/07/08 04:56:44;;;;;;;8.07;5.10;;;17.60;99.90;;;;;;4963737;28;20109;-47
2023/07/08 04:59:11;;;;;;;8.93;5.30;;;17.70;99.90;;;;;;4952482;28;20043;-48
2023/07/08 05:01:37;;;;;;;8.60;4.90;;;17.70;99.90;;;;;;4952380;28;20135;-50
2023/07/08 05:04:05;;;;;;;10.98;5.15;;;17.80;99.90;;;;;;4952972;28;20502;-49
2023/07/08 05:06:31;;;;;;;7.32;4.95;;;17.80;99.90;;;;;;4935369;28;20043;-46
2023/07/08 05:08:59;;;;;;;9.57;4.80;;;17.80;99.90;;;;;;4952048;28;20078;-47
2023/07/08 05:11:24;;;;;;;8.43;4.50;;;17.90;99.90;;;;;;4952588;28;20076;-48
2023/07/08 05:13:50;;;;;;;7.60;5.00;;;17.90;99.90;;;;;;4951626;28;20075;-49
2023/07/08 05:16:16;;;;;;;7.38;4.82;;;18.00;99.90;;;;;;4935320;28;20039;-50
2023/07/08 05:18:44;;;;;;;9.02;5.18;;;18.00;99.90;;;;;;4952519;28;20039;-48
2023/07/08 05:21:10;;;;;;;7.90;4.55;;;18.00;99.90;;;;;;4952270;28;20039;-44
2023/07/08 05:23:36;;;;;;;8.30;5.03;;;18.10;99.90;;;;;;4952516;28;20039;-47
2023/07/08 05:26:03;;;;;;;7.15;4.45;;;18.10;99.90;;;;;;4935080;28;20037;-45
2023/07/08 05:28:30;;;;;;;7.22;4.82;;;18.20;99.90;;;;;;4935022;28;20047;-48
2023/07/08 05:30:56;;;;;;;8.13;4.63;;;18.20;99.90;;;;;;4951448;28;20039;-45
2023/07/08 05:33:26;;;;;;;7.60;4.68;;;18.30;99.90;;;;;;4952203;28;20039;-46
2023/07/08 05:35:52;;;;;;;8.30;4.55;;;18.30;99.90;;;;;;4952246;28;20522;-48
2023/07/08 05:38:19;;;;;;;7.45;4.72;;;18.30;99.90;;;;;;4952480;28;20054;-45
2023/07/08 05:40:55;;;;;;;8.13;4.40;;;18.40;99.90;;;;;;4955419;28;20039;-46
2023/07/08 05:43:21;;;;;;;7.50;4.40;;;18.40;99.90;;;;;;4955968;28;20031;-46
2023/07/08 05:45:47;;;;;;;7.57;4.30;;;18.50;99.90;;;;;;4955810;28;20049;-46
2023/07/08 05:48:13;;;;;;;7.63;4.60;;;18.50;99.90;;;;;;4955847;28;20569;-46
2023/07/08 05:50:40;;;;;;;8.02;4.38;;;18.60;99.90;;;;;;4955883;28;20035;-49
2023/07/08 05:53:09;;;;;;;8.13;4.18;;;18.60;99.90;;;;;;4955474;28;20051;-47
2023/07/08 05:55:34;;;;;;;7.63;4.18;;;18.70;99.90;;;;;;4955544;28;20552;-48
2023/07/08 05:58:00;;;;;;;7.10;4.22;;;18.70;99.90;;;;;;4954434;28;20043;-43
2023/07/08 06:00:26;;;;;;;8.57;3.78;;;18.80;99.90;;;;;;4955390;28;20047;-49
2023/07/08 06:02:51;;;;;;;6.70;3.95;;;18.80;99.90;;;;;;4955680;28;20043;-51
2023/07/08 06:05:17;;;;;;;6.70;3.95;;;18.90;99.90;;;;;;4955514;28;20121;-48
2023/07/08 06:07:43;;;;;;;6.78;4.00;;;18.90;99.90;;;;;;4938127;28;20109;-50
2023/07/08 06:10:09;;;;;;;6.25;3.97;;;19.00;99.90;;;;;;4953442;28;20533;-50
2023/07/08 06:12:34;;;;;;;8.27;3.90;;;19.00;99.90;;;;;;4955502;28;20058;-52
2023/07/08 06:15:00;;;;;;;6.60;4.20;;;19.10;99.90;;;;;;4955386;28;20047;-49
2023/07/08 06:17:26;;;;;;;6.57;4.00;;;19.10;99.90;;;;;;4964753;28;20047;-45
2023/07/08 06:19:52;;;;;;;6.30;3.90;;;19.20;99.90;;;;;;4974671;28;20031;-47
2023/07/08 06:22:18;;;;;;;5.85;3.65;;;19.30;99.90;;;;;;4938358;28;20039;-47
2023/07/08 06:24:43;;;;;;;7.60;4.10;;;19.40;99.90;;;;;;4938037;28;20379;-48
2023/07/08 06:27:09;;;;;;;7.80;4.10;;;19.40;99.90;;;;;;4953856;28;20370;-49
2023/07/08 06:29:35;;;;;;;6.75;3.60;;;19.40;99.90;;;;;;4959594;28;20114;-49
2023/07/08 06:32:02;;;;;;;6.13;4.00;;;19.50;99.90;;;;;;4959585;28;20039;-46
2023/07/08 06:34:27;;;;;;;7.75;3.50;;;19.60;99.90;;;;;;4959054;28;20035;-49
2023/07/08 06:36:53;;;;;;;8.35;3.70;;;19.60;99.90;;;;;;4959572;28;20054;-48
2023/07/08 06:39:19;;;;;;;7.22;3.92;;;19.70;99.90;;;;;;4957989;28;20538;-49
2023/07/08 06:41:45;;;;;;;6.55;3.75;;;19.70;99.90;;;;;;4960236;28;20214;-48
2023/07/08 06:44:11;;;;;;;5.05;3.25;;;19.80;99.90;;;;;;4934582;28;20142;-51
2023/07/08 06:46:37;;;;;;;7.28;3.80;;;19.80;99.90;;;;;;4959948;28;20115;-49
2023/07/08 06:49:02;;;;;;;5.00;3.50;;;19.90;99.90;;;;;;4958745;28;20034;-48
2023/07/08 06:51:29;;;;;;;5.82;3.88;;;20.00;99.90;;;;;;4959433;28;20549;-47
2023/07/08 06:53:54;;;;;;;6.63;3.47;;;20.00;99.90;;;;;;4958106;28;20050;-47
2023/07/08 06:56:20;;;;;;;7.18;3.47;;;20.10;99.90;;;;;;4959759;28;20035;-47
2023/07/08 06:58:46;;;;;;;8.57;3.55;;;20.20;99.90;;;;;;4958747;28;20052;-50
2023/07/08 07:01:12;;;;;;;6.22;3.58;;;20.20;99.90;;;;;;4959701;28;20487;-46
2023/07/08 07:03:38;;;;;;;6.07;3.60;;;20.30;99.90;;;;;;4958310;28;20054;-47
2023/07/08 07:06:04;;;;;;;6.13;3.50;;;20.30;99.90;;;;;;4959723;28;20026;-47
2023/07/08 07:08:29;;;;;;;6.18;3.42;;;20.40;99.90;;;;;;4934446;28;20047;-46
2023/07/08 07:10:55;;;;;;;6.45;3.50;;;20.50;99.90;;;;;;4959293;28;20478;-45
2023/07/08 07:13:21;;;;;;;7.47;3.63;;;20.60;99.90;;;;;;4958877;28;20418;-48
2023/07/08 07:15:49;;;;;;;7.97;3.65;;;20.60;99.90;;;;;;4959621;28;20112;-48
2023/07/08 07:18:15;;;;;;;8.80;3.63;;;20.70;99.90;;;;;;4957945;28;20502;-44
2023/07/08 07:20:52;;;;;;;6.80;3.70;;;20.80;99.90;;;;;;4954557;28;20032;-47
2023/07/08 07:23:18;;;;;;;9.70;3.88;;;20.80;99.90;;;;;;4951759;28;20410;-48
2023/07/08 07:25:47;;;;;;;6.03;3.50;;;20.90;99.90;;;;;;4950737;28;20140;-52
2023/07/08 07:28:14;;;;;;;7.68;3.53;;;21.00;99.90;;;;;;4953203;28;20435;-49
2023/07/08 07:30:40;;;;;;;8.48;3.70;;;21.10;99.90;;;;;;4953046;28;20387;-49
2023/07/08 07:33:05;;;;;;;7.85;3.42;;;21.20;99.90;;;;;;4952335;28;20049;-50
2023/07/08 07:35:31;;;;;;;6.47;3.58;;;21.20;99.90;;;;;;4933637;28;20555;-46
2023/07/08 07:37:57;;;;;;;5.82;3.47;;;21.20;99.90;;;;;;4953176;28;20130;-50
2023/07/08 07:40:22;;;;;;;6.78;3.53;;;21.30;99.90;;;;;;4951817;28;20074;-49
2023/07/08 07:42:48;;;;;;;6.13;3.22;;;21.40;99.90;;;;;;4953441;28;20543;-50
2023/07/08 07:45:14;;;;;;;8.57;4.20;;;21.40;99.90;;;;;;4953131;28;20432;-48
2023/07/08 07:47:40;;;;;;;5.38;3.45;;;21.50;99.90;;;;;;4952182;28;20067;-47
2023/07/08 07:50:07;;;;;;;6.55;3.22;;;21.60;99.90;;;;;;4933177;28;20035;-48
2023/07/08 07:52:34;;;;;;;8.52;3.42;;;21.70;99.90;;;;;;4953305;28;20054;-47
2023/07/08 07:54:59;;;;;;;5.53;3.15;;;21.70;99.90;;;;;;4953683;28;20382;-46
2023/07/08 07:57:26;;;;;;;5.32;3.28;;;21.80;99.90;;;;;;4953416;28;20134;-48
2023/07/08 07:59:52;;;;;;;5.45;3.05;;;21.90;99.90;;;;;;4953565;28;20431;-48
2023/07/08 08:02:18;;;;;;;7.10;3.42;;;22.00;99.90;;;;;;4952668;28;20046;-50
2023/07/08 08:04:44;;;;;;;5.43;3.10;;;22.10;99.90;;;;;;4935788;28;20047;-50
2023/07/08 08:07:10;;;;;;;8.32;3.20;;;22.10;99.90;;;;;;4953561;28;20538;-50
2023/07/08 08:09:36;;;;;;;6.38;3.05;;;22.20;99.90;;;;;;4935499;28;20480;-47
2023/07/08 08:12:04;;;;;;;7.30;3.55;;;22.30;99.90;;;;;;4953241;28;20043;-48
2023/07/08 08:14:30;;;;;;;6.97;2.92;;;22.30;99.90;;;;;;4953665;28;20046;-48
2023/07/08 08:16:55;;;;;;;5.78;3.30;;;22.50;99.90;;;;;;4953037;28;20091;-49
2023/07/08 08:19:22;;;;;;;7.28;3.20;;;22.50;99.90;;;;;;4935723;28;20487;-46
2023/07/08 08:21:48;;;;;;;7.47;3.30;;;22.60;99.90;;;;;;4952820;28;20076;-49
2023/07/08 08:24:13;;;;;;;7.15;3.40;;;22.60;99.90;;;;;;4935843;28;20125;-48
2023/07/08 08:26:39;;;;;;;8.88;3.78;;;22.70;99.90;;;;;;4952961;28;20084;-49
2023/07/08 08:29:05;;;;;;;6.25;3.58;;;22.80;99.90;;;;;;4935629;28;20111;-47
2023/07/08 08:31:34;;;;;;;7.40;3.50;;;22.90;99.90;;;;;;4952325;28;20410;-48
2023/07/08 08:33:59;;;;;;;6.93;3.42;;;23.00;99.90;;;;;;4952318;28;20488;-45
2023/07/08 08:36:25;;;;;;;6.38;3.38;;;23.10;99.90;;;;;;4950386;28;20070;-47
2023/07/08 08:38:51;;;;;;;6.32;3.42;;;23.10;99.90;;;;;;4952921;28;20398;-47
2023/07/08 08:41:20;;;;;;;8.52;3.60;;;23.20;99.90;;;;;;4950510;28;20058;-46
2023/07/08 08:43:48;;;;;;;6.88;3.42;;;23.30;99.90;;;;;;4952478;28;20550;-46
2023/07/08 08:46:34;;;;;;;6.38;3.25;;;23.40;99.90;;;;;;4951715;28;20047;-46
2023/07/08 08:49:27;;;;;;;7.63;3.95;;;23.50;99.90;;;;;;4951385;28;20043;-46
2023/07/08 08:51:53;;;;;;;7.38;3.80;;;23.60;99.90;;;;;;4951995;28;20110;-47
2023/07/08 08:54:19;;;;;;;7.55;3.50;;;23.60;99.90;;;;;;4952125;28;20070;-49
2023/07/08 08:57:22;;;;;;;7.32;3.58;;;23.70;99.90;;;;;;4952501;28;20094;-45
2023/07/08 08:59:55;;;;;;;7.70;3.70;;;23.70;99.90;;;;;;4949725;28;20478;-47
2023/07/08 09:02:31;;;;;;;9.00;3.50;;;23.90;99.90;;;;;;4951620;28;20054;-51
2023/07/08 09:05:11;;;;;;;6.97;3.15;;;23.90;99.90;;;;;;4951528;28;20043;-46
2023/07/08 09:08:15;;;;;;;8.57;3.35;;;24.00;99.90;;;;;;4950892;28;20051;-48
2023/07/08 09:10:57;;;;;;;6.60;3.30;;;24.10;99.90;;;;;;4951011;28;20530;-47
2023/07/08 09:13:35;;;;;;;6.40;3.22;;;24.30;99.90;;;;;;4952179;28;20283;-47
2023/07/08 09:16:24;;;;;;;6.68;3.00;;;24.40;99.90;;;;;;4956058;28;20046;-48
2023/07/08 09:18:53;;;;;;;8.10;3.40;;;24.50;99.90;;;;;;4937536;28;20051;-47
2023/07/08 09:21:35;;;;;;;8.80;3.97;;;24.70;99.90;;;;;;4955487;28;20081;-49
2023/07/08 09:24:08;;;;;;;5.88;3.40;;;24.80;99.90;;;;;;4955736;28;20082;-48
2023/07/08 09:26:33;;;;;;;7.03;3.40;;;25.00;99.70;;;;;;4954796;28;20043;-46
2023/07/08 09:28:59;;;;;;;6.55;3.45;;;25.20;99.40;;;;;;4955724;28;20431;-45
2023/07/08 09:31:31;;;;;;;5.53;3.08;;;25.30;99.00;;;;;;4955788;28;20483;-48
2023/07/08 09:34:17;;;;;;;7.70;3.00;;;25.40;98.90;;;;;;4955618;28;20074;-47
2023/07/08 09:36:46;;;;;;;7.90;3.53;;;25.60;99.10;;;;;;4955420;28;20049;-48
2023/07/08 09:39:14;;;;;;;6.15;3.30;;;25.80;99.30;;;;;;4954257;28;20102;-48
2023/07/08 09:41:42;;;;;;;5.03;2.75;;;26.00;98.80;;;;;;4955879;28;20237;-47
2023/07/08 09:44:23;;;;;;;4.95;3.10;;;26.10;98.50;;;;;;4955530;28;20042;-48
2023/07/08 09:46:49;;;;;;;6.32;3.45;;;26.20;98.80;;;;;;4957472;28;20047;-48
2023/07/08 09:49:22;;;;;;;5.93;3.35;;;26.30;98.50;;;;;;4955241;28;20063;-46
2023/07/08 09:51:50;;;;;;;6.40;3.70;;;26.50;98.50;;;;;;4955161;28;20039;-46
2023/07/08 09:54:17;;;;;;;6.63;3.10;;;26.70;98.30;;;;;;4955206;28;20118;-51
2023/07/08 09:56:49;;;;;;;5.72;3.40;;;26.80;98.10;;;;;;4935340;28;20463;-49
2023/07/08 09:59:15;;;;;;;7.70;3.38;;;26.80;98.00;;;;;;4954868;28;20038;-46
2023/07/08 10:01:42;;;;;;;6.88;3.33;;;26.80;97.70;;;;;;4955317;28;20046;-47
2023/07/08 10:04:08;;;;;;;8.30;3.40;;;26.80;98.00;;;;;;4955068;28;20039;-47
2023/07/08 10:06:35;;;;;;;7.68;3.47;;;27.00;98.00;;;;;;4934406;28;20542;-49
2023/07/08 10:09:18;;;;;;;5.78;3.00;;;27.10;97.70;;;;;;4954994;28;20051;-49
2023/07/08 10:11:53;;;;;;;5.47;3.23;;;27.20;97.40;;;;;;4954240;28;20078;-46
2023/07/08 10:14:46;;;;;;;6.85;3.13;;;27.30;97.40;;;;;;4954948;28;20327;-48
2023/07/08 10:17:17;;;;;;;6.43;3.35;;;27.30;97.30;;;;;;4954120;28;20046;-48
2023/07/08 10:19:43;;;;;;;7.13;3.13;;;27.40;97.30;;;;;;4954780;28;20043;-51
2023/07/08 10:22:18;;;;;;;7.07;3.60;;;27.40;97.50;;;;;;4954465;28;20038;-49
2023/07/08 10:25:09;;;;;;;5.05;3.47;;;27.60;97.60;;;;;;4954431;28;20035;-49
2023/07/08 10:27:52;;;;;;;5.85;3.17;;;27.70;97.70;;;;;;4954703;28;20195;-47
2023/07/08 10:30:41;;;;;;;5.95;3.42;;;27.80;97.40;;;;;;4935760;28;20126;-49
2023/07/08 10:34:03;;;;;;;7.72;2.97;;;27.80;97.30;;;;;;4950855;28;20474;-49
2023/07/08 10:36:37;;;;;;;8.05;3.35;;;27.80;97.20;;;;;;4914273;28;20059;-48
2023/07/08 10:39:35;;;;;;;5.18;3.17;;;27.90;97.30;;;;;;4934109;28;20407;-46
2023/07/08 10:42:19;;;;;;;8.40;3.55;;;28.00;97.50;;;;;;4932540;28;20115;-49
2023/07/08 10:44:59;;;;;;;9.00;3.20;;;28.20;97.10;;;;;;4954306;28;20091;-47
2023/07/08 10:47:40;;;;;;;5.93;3.38;;;28.30;96.50;;;;;;4952800;28;20547;-45
2023/07/08 10:50:36;;;;;;;7.50;3.20;;;28.30;96.60;;;;;;4951934;28;20041;-47
2023/07/08 10:53:54;;;;;;;8.77;3.13;;;28.40;97.00;;;;;;4954172;28;20065;-48
2023/07/08 10:56:51;;;;;;;7.25;3.55;;;28.60;96.50;;;;;;4881474;28;20056;-47
2023/07/08 10:59:23;;;;;;;5.63;3.22;;;28.80;96.10;;;;;;4949504;28;20035;-49
2023/07/08 11:01:48;;;;;;;7.93;3.40;;;28.90;96.50;;;;;;4951448;28;20074;-50
2023/07/08 11:04:42;;;;;;;6.80;3.63;;;29.00;96.60;;;;;;4934679;28;20071;-49
2023/07/08 11:07:30;;;;;;;5.88;3.20;;;29.10;96.10;;;;;;4952628;28;20071;-48
2023/07/08 11:10:00;;;;;;;6.38;3.30;;;29.20;96.10;;;;;;4951489;28;20158;-49
2023/07/08 11:12:49;;;;;;;8.52;3.38;;;29.30;96.50;;;;;;4951456;28;20126;-49
2023/07/08 11:15:36;;;;;;;6.60;3.28;;;29.40;96.50;;;;;;4941909;28;20054;-49
2023/07/08 11:18:07;;;;;;;8.05;3.45;;;29.50;95.70;;;;;;4933498;28;20039;-50
2023/07/08 11:20:59;;;;;;;5.70;3.67;;;29.70;95.70;;;;;;4955971;28;20053;-48
2023/07/08 11:23:27;;;;;;;7.35;3.28;;;29.70;95.50;;;;;;4952189;28;20106;-48
2023/07/08 11:26:15;;;;;;;6.68;3.58;;;29.80;95.50;;;;;;4950991;28;20059;-47
2023/07/08 11:28:41;;;;;;;8.23;3.72;;;30.00;95.20;;;;;;4952049;28;20043;-46
2023/07/08 11:31:07;;;;;;;6.35;3.47;;;30.10;95.00;;;;;;4952363;28;20406;-48
2023/07/08 11:33:34;;;;;;;5.75;3.60;;;30.20;94.80;;;;;;4951240;28;20110;-48
2023/07/08 11:36:02;;;;;;;9.02;3.65;;;30.20;94.70;;;;;;4951937;28;20606;-50
2023/07/08 11:38:28;;;;;;;5.88;3.20;;;30.40;94.70;;;;;;4951813;28;20055;-50
2023/07/08 11:40:56;;;;;;;6.90;3.60;;;30.50;94.40;;;;;;4951372;28;20035;-49
2023/07/08 11:43:25;;;;;;;9.43;3.85;;;30.60;94.30;;;;;;4950752;28;20475;-49
2023/07/08 11:45:53;;;;;;;5.82;4.00;;;30.70;93.80;;;;;;4952038;28;20506;-46
2023/07/08 11:48:25;;;;;;;9.45;3.70;;;30.80;93.70;;;;;;4950989;28;20039;-46
2023/07/08 11:50:52;;;;;;;5.57;3.67;;;30.80;93.20;;;;;;4949020;28;20061;-45
2023/07/08 11:53:46;;;;;;;8.10;3.90;;;30.90;93.80;;;;;;4933691;28;20047;-52
2023/07/08 11:56:20;;;;;;;7.32;3.50;;;31.10;93.20;;;;;;4949859;28;20034;-49
2023/07/08 11:59:15;;;;;;;9.02;4.43;;;31.20;93.40;;;;;;4956706;28;20047;-49
2023/07/08 12:01:51;;;;;;;7.40;4.45;;;31.20;92.00;;;;;;4949985;28;20487;-48
2023/07/08 12:04:25;;;;;;;7.35;4.20;;;31.30;91.20;;;;;;4948978;28;20035;-47
2023/07/08 12:07:15;;;;;;;8.38;4.05;;;31.40;91.30;;;;;;4950552;28;20039;-44
2023/07/08 12:09:57;;;;;;;6.95;3.97;;;31.70;92.10;;;;;;4949629;28;20642;-48
2023/07/08 12:12:43;;;;;;;8.20;3.97;;;31.80;91.80;;;;;;4950263;28;20163;-49
2023/07/08 12:15:09;;;;;;;9.18;3.88;;;32.00;92.30;;;;;;4949519;28;20042;-45
2023/07/08 12:17:37;;;;;;;6.18;3.67;;;32.10;91.90;;;;;;4949906;28;20031;-46
2023/07/08 12:20:13;;;;;;;6.82;3.85;;;32.20;91.50;;;;;;4949921;28;20081;-48
2023/07/08 12:22:39;;;;;;;8.38;3.95;;;32.20;91.00;;;;;;4950121;28;20115;-49
2023/07/08 12:25:19;;;;;;;7.75;4.25;;;32.40;91.00;;;;;;4951010;28;20042;-44
2023/07/08 12:27:46;;;;;;;7.88;4.13;;;32.40;91.10;;;;;;4949187;28;20058;-46
2023/07/08 12:30:13;;;;;;;8.57;4.20;;;32.50;90.90;;;;;;4949339;28;20128;-47
2023/07/08 12:32:43;;;;;;;8.20;4.20;;;32.50;90.30;;;;;;4950842;28;20039;-45
2023/07/08 12:35:29;;;;;;;9.70;4.47;;;32.60;90.30;;;;;;4947809;28;20039;-47
2023/07/08 12:38:00;;;;;;;8.63;4.10;;;32.70;89.90;;;;;;4948277;28;20415;-45
2023/07/08 12:40:28;;;;;;;6.88;3.72;;;32.70;90.20;;;;;;4949312;28;20043;-47
2023/07/08 12:42:55;;;;;;;7.72;4.35;;;32.80;90.10;;;;;;4947574;28;20062;-46
2023/07/08 12:45:23;;;;;;;8.48;3.92;;;33.00;90.60;;;;;;4951982;28;20038;-47
2023/07/08 12:47:49;;;;;;;6.45;4.25;;;33.00;90.10;;;;;;4950848;28;20082;-47
2023/07/08 12:50:15;;;;;;;6.38;4.00;;;33.10;89.40;;;;;;4951735;28;20070;-50
2023/07/08 12:52:44;;;;;;;7.50;4.32;;;33.20;90.00;;;;;;4932953;28;20098;-49
2023/07/08 12:55:11;;;;;;;8.88;4.05;;;33.30;89.20;;;;;;4951719;28;20455;-48
2023/07/08 12:57:40;;;;;;;7.03;4.05;;;33.40;89.00;;;;;;4952313;28;20091;-48
2023/07/08 13:00:16;;;;;;;7.78;3.83;;;33.50;89.90;;;;;;4947796;28;20129;-48
2023/07/08 13:02:46;;;;;;;9.90;4.35;;;33.70;90.20;;;;;;4952409;28;20053;-45